Key West, Florida
Current Conditions -  °F | °C
As of 12:53 AM on Thursday 23 Oct 2014 (Local Time) from KEYW Reporting Station
Light Rain Light Rain  
Wind Chill: 23°   Ceiling: Unl
Heat Index: 23°   Visibility: 10mi
Dew Point: 23°   Wind: 9mph
Humidity: 100%   Direction: 70°ENE
Pressure: 29.92"   Gusts: NA
Location:  24.55°N, 81.8°W
Report Text: KEYW 230453Z AUTO 07008KT 10SM -RA FEW100 23/23 A2992 RMK AO2 SLP130 P0001 T02330233 402720228
Loading
Personal Weather Stations






























Interactive Weather Map
Tropical Storm Tracking
New forecast layout! Learn more

10-Day Weather Forecast

Advertisements
Track Severe Weather on mobile